sensor_id;sensor_type;location;lat;lon;timestamp;P1;durP1;ratioP1;P2;durP2;ratioP2
21539;SDS011;10931;52.164;5.518;2024-02-14T00:02:24;9.10;;;5.72;;
21539;SDS011;10931;52.164;5.518;2024-02-14T00:04:56;11.18;;;6.75;;
21539;SDS011;10931;52.164;5.518;2024-02-14T00:07:22;9.43;;;6.22;;
21539;SDS011;10931;52.164;5.518;2024-02-14T00:09:51;7.82;;;6.28;;
21539;SDS011;10931;52.164;5.518;2024-02-14T00:12:26;10.90;;;7.07;;
21539;SDS011;10931;52.164;5.518;2024-02-14T00:14:52;10.30;;;6.85;;
21539;SDS011;10931;52.164;5.518;2024-02-14T00:17:18;6.97;;;5.75;;
21539;SDS011;10931;52.164;5.518;2024-02-14T00:19:47;6.55;;;5.65;;
21539;SDS011;10931;52.164;5.518;2024-02-14T00:22:13;8.57;;;5.70;;
21539;SDS011;10931;52.164;5.518;2024-02-14T00:24:42;8.55;;;5.65;;
21539;SDS011;10931;52.164;5.518;2024-02-14T00:27:08;8.55;;;6.10;;
21539;SDS011;10931;52.164;5.518;2024-02-14T00:29:37;7.15;;;5.53;;
21539;SDS011;10931;52.164;5.518;2024-02-14T00:32:05;7.20;;;5.55;;
21539;SDS011;10931;52.164;5.518;2024-02-14T00:34:39;7.03;;;5.80;;
21539;SDS011;10931;52.164;5.518;2024-02-14T00:37:05;11.48;;;6.13;;
21539;SDS011;10931;52.164;5.518;2024-02-14T00:39:31;9.10;;;6.43;;
21539;SDS011;10931;52.164;5.518;2024-02-14T00:41:57;7.78;;;6.90;;
21539;SDS011;10931;52.164;5.518;2024-02-14T00:44:25;9.30;;;6.90;;
21539;SDS011;10931;52.164;5.518;2024-02-14T00:46:57;10.63;;;7.57;;
21539;SDS011;10931;52.164;5.518;2024-02-14T00:49:24;10.98;;;7.20;;
21539;SDS011;10931;52.164;5.518;2024-02-14T00:51:57;11.35;;;7.75;;
21539;SDS011;10931;52.164;5.518;2024-02-14T00:54:27;7.97;;;6.57;;
21539;SDS011;10931;52.164;5.518;2024-02-14T00:56:57;8.68;;;6.50;;
21539;SDS011;10931;52.164;5.518;2024-02-14T00:59:22;10.85;;;8.13;;
21539;SDS011;10931;52.164;5.518;2024-02-14T01:01:52;11.20;;;7.18;;
21539;SDS011;10931;52.164;5.518;2024-02-14T01:04:21;10.02;;;8.40;;
21539;SDS011;10931;52.164;5.518;2024-02-14T01:06:50;10.65;;;8.35;;
21539;SDS011;10931;52.164;5.518;2024-02-14T01:09:19;11.48;;;8.68;;
21539;SDS011;10931;52.164;5.518;2024-02-14T01:11:45;13.27;;;10.07;;
21539;SDS011;10931;52.164;5.518;2024-02-14T01:14:12;12.90;;;9.23;;
21539;SDS011;10931;52.164;5.518;2024-02-14T01:16:45;14.13;;;11.35;;
21539;SDS011;10931;52.164;5.518;2024-02-14T01:19:17;13.07;;;11.02;;
21539;SDS011;10931;52.164;5.518;2024-02-14T01:21:45;17.10;;;10.73;;
21539;SDS011;10931;52.164;5.518;2024-02-14T01:24:14;18.02;;;11.50;;
21539;SDS011;10931;52.164;5.518;2024-02-14T01:26:47;18.02;;;11.85;;
21539;SDS011;10931;52.164;5.518;2024-02-14T01:29:13;21.45;;;13.10;;
21539;SDS011;10931;52.164;5.518;2024-02-14T01:31:42;17.30;;;12.45;;
21539;SDS011;10931;52.164;5.518;2024-02-14T01:34:10;19.25;;;11.88;;
21539;SDS011;10931;52.164;5.518;2024-02-14T01:36:36;14.48;;;11.23;;
21539;SDS011;10931;52.164;5.518;2024-02-14T01:39:06;16.98;;;12.00;;
21539;SDS011;10931;52.164;5.518;2024-02-14T01:41:36;18.98;;;12.70;;
21539;SDS011;10931;52.164;5.518;2024-02-14T01:44:03;19.65;;;14.15;;
21539;SDS011;10931;52.164;5.518;2024-02-14T01:46:29;20.10;;;13.57;;
21539;SDS011;10931;52.164;5.518;2024-02-14T01:49:01;20.58;;;14.25;;
21539;SDS011;10931;52.164;5.518;2024-02-14T01:51:29;19.35;;;14.38;;
21539;SDS011;10931;52.164;5.518;2024-02-14T01:53:55;20.10;;;13.73;;
21539;SDS011;10931;52.164;5.518;2024-02-14T01:56:21;22.05;;;13.98;;
21539;SDS011;10931;52.164;5.518;2024-02-14T01:58:48;22.08;;;13.85;;
21539;SDS011;10931;52.164;5.518;2024-02-14T02:01:16;21.17;;;14.77;;
21539;SDS011;10931;52.164;5.518;2024-02-14T02:03:43;22.77;;;14.80;;
21539;SDS011;10931;52.164;5.518;2024-02-14T02:06:14;18.55;;;13.10;;
21539;SDS011;10931;52.164;5.518;2024-02-14T02:08:53;19.58;;;13.13;;
21539;SDS011;10931;52.164;5.518;2024-02-14T02:11:18;20.00;;;14.38;;
21539;SDS011;10931;52.164;5.518;2024-02-14T02:13:45;23.67;;;15.77;;
21539;SDS011;10931;52.164;5.518;2024-02-14T02:16:11;19.20;;;15.02;;
21539;SDS011;10931;52.164;5.518;2024-02-14T02:18:37;21.85;;;14.70;;
21539;SDS011;10931;52.164;5.518;2024-02-14T02:21:06;24.10;;;15.73;;
21539;SDS011;10931;52.164;5.518;2024-02-14T02:23:35;26.73;;;15.85;;
21539;SDS011;10931;52.164;5.518;2024-02-14T02:26:01;24.17;;;16.52;;
21539;SDS011;10931;52.164;5.518;2024-02-14T02:28:35;21.98;;;15.55;;
21539;SDS011;10931;52.164;5.518;2024-02-14T02:31:14;21.30;;;14.68;;
21539;SDS011;10931;52.164;5.518;2024-02-14T02:33:46;23.77;;;17.10;;
21539;SDS011;10931;52.164;5.518;2024-02-14T02:36:16;19.45;;;14.50;;
21539;SDS011;10931;52.164;5.518;2024-02-14T02:38:45;24.50;;;15.70;;
21539;SDS011;10931;52.164;5.518;2024-02-14T02:41:16;23.05;;;15.55;;
21539;SDS011;10931;52.164;5.518;2024-02-14T02:43:49;21.80;;;14.75;;
21539;SDS011;10931;52.164;5.518;2024-02-14T02:46:18;21.33;;;14.90;;
21539;SDS011;10931;52.164;5.518;2024-02-14T02:48:57;25.13;;;16.25;;
21539;SDS011;10931;52.164;5.518;2024-02-14T02:51:26;23.50;;;16.38;;
21539;SDS011;10931;52.164;5.518;2024-02-14T02:54:02;26.45;;;17.45;;
21539;SDS011;10931;52.164;5.518;2024-02-14T02:56:36;24.23;;;15.48;;
21539;SDS011;10931;52.164;5.518;2024-02-14T02:59:02;23.95;;;16.00;;
21539;SDS011;10931;52.164;5.518;2024-02-14T03:01:30;21.02;;;14.85;;
21539;SDS011;10931;52.164;5.518;2024-02-14T03:04:06;23.58;;;15.75;;
21539;SDS011;10931;52.164;5.518;2024-02-14T03:06:36;25.35;;;16.25;;
21539;SDS011;10931;52.164;5.518;2024-02-14T03:09:18;28.58;;;16.40;;
21539;SDS011;10931;52.164;5.518;2024-02-14T03:11:50;25.73;;;17.13;;
21539;SDS011;10931;52.164;5.518;2024-02-14T03:14:28;23.10;;;17.13;;
21539;SDS011;10931;52.164;5.518;2024-02-14T03:17:05;22.63;;;16.90;;
21539;SDS011;10931;52.164;5.518;2024-02-14T03:19:42;24.95;;;16.65;;
21539;SDS011;10931;52.164;5.518;2024-02-14T03:22:10;23.05;;;17.35;;
21539;SDS011;10931;52.164;5.518;2024-02-14T03:24:39;21.48;;;15.27;;
21539;SDS011;10931;52.164;5.518;2024-02-14T03:27:07;21.65;;;16.30;;
21539;SDS011;10931;52.164;5.518;2024-02-14T03:29:35;23.02;;;15.50;;
21539;SDS011;10931;52.164;5.518;2024-02-14T03:32:04;21.85;;;16.25;;
21539;SDS011;10931;52.164;5.518;2024-02-14T03:34:30;23.25;;;15.60;;
21539;SDS011;10931;52.164;5.518;2024-02-14T03:36:58;25.17;;;18.38;;
21539;SDS011;10931;52.164;5.518;2024-02-14T03:39:29;27.38;;;19.27;;
21539;SDS011;10931;52.164;5.518;2024-02-14T03:41:55;29.70;;;18.05;;
21539;SDS011;10931;52.164;5.518;2024-02-14T03:44:24;29.75;;;19.30;;
21539;SDS011;10931;52.164;5.518;2024-02-14T03:46:50;29.33;;;20.92;;
21539;SDS011;10931;52.164;5.518;2024-02-14T03:49:16;29.95;;;20.63;;
21539;SDS011;10931;52.164;5.518;2024-02-14T03:51:42;28.35;;;20.10;;
21539;SDS011;10931;52.164;5.518;2024-02-14T03:54:08;29.90;;;20.95;;
21539;SDS011;10931;52.164;5.518;2024-02-14T03:56:34;31.38;;;20.65;;
21539;SDS011;10931;52.164;5.518;2024-02-14T03:59:05;33.78;;;20.20;;
21539;SDS011;10931;52.164;5.518;2024-02-14T04:01:31;31.63;;;20.65;;
21539;SDS011;10931;52.164;5.518;2024-02-14T04:03:57;35.63;;;21.08;;
21539;SDS011;10931;52.164;5.518;2024-02-14T04:06:23;33.55;;;20.83;;
21539;SDS011;10931;52.164;5.518;2024-02-14T04:08:51;53.72;;;24.35;;
21539;SDS011;10931;52.164;5.518;2024-02-14T04:11:17;39.97;;;22.98;;
21539;SDS011;10931;52.164;5.518;2024-02-14T04:13:46;39.83;;;20.65;;
21539;SDS011;10931;52.164;5.518;2024-02-14T04:16:16;34.78;;;21.80;;
21539;SDS011;10931;52.164;5.518;2024-02-14T04:18:52;38.10;;;23.13;;
21539;SDS011;10931;52.164;5.518;2024-02-14T04:21:20;40.83;;;23.02;;
21539;SDS011;10931;52.164;5.518;2024-02-14T04:23:46;39.50;;;21.80;;
21539;SDS011;10931;52.164;5.518;2024-02-14T04:29:04;44.80;;;23.58;;
21539;SDS011;10931;52.164;5.518;2024-02-14T04:31:30;40.08;;;23.58;;
21539;SDS011;10931;52.164;5.518;2024-02-14T04:33:57;38.08;;;22.88;;
21539;SDS011;10931;52.164;5.518;2024-02-14T04:36:23;42.88;;;23.10;;
21539;SDS011;10931;52.164;5.518;2024-02-14T04:38:51;38.05;;;22.98;;
21539;SDS011;10931;52.164;5.518;2024-02-14T04:41:18;46.50;;;23.42;;
21539;SDS011;10931;52.164;5.518;2024-02-14T04:43:44;48.90;;;22.92;;
21539;SDS011;10931;52.164;5.518;2024-02-14T04:46:13;43.63;;;23.45;;
21539;SDS011;10931;52.164;5.518;2024-02-14T04:48:39;47.75;;;22.83;;
21539;SDS011;10931;52.164;5.518;2024-02-14T04:51:05;44.03;;;22.73;;
21539;SDS011;10931;52.164;5.518;2024-02-14T04:53:31;37.55;;;21.25;;
21539;SDS011;10931;52.164;5.518;2024-02-14T04:55:58;37.20;;;20.33;;
21539;SDS011;10931;52.164;5.518;2024-02-14T04:58:24;43.83;;;22.45;;
21539;SDS011;10931;52.164;5.518;2024-02-14T05:00:52;38.17;;;22.27;;
21539;SDS011;10931;52.164;5.518;2024-02-14T05:03:18;42.85;;;23.27;;
21539;SDS011;10931;52.164;5.518;2024-02-14T05:05:44;50.95;;;23.45;;
21539;SDS011;10931;52.164;5.518;2024-02-14T05:08:10;41.28;;;22.98;;
21539;SDS011;10931;52.164;5.518;2024-02-14T05:10:36;49.40;;;24.13;;
21539;SDS011;10931;52.164;5.518;2024-02-14T05:13:02;44.50;;;25.52;;
21539;SDS011;10931;52.164;5.518;2024-02-14T05:15:28;40.25;;;24.10;;
21539;SDS011;10931;52.164;5.518;2024-02-14T05:17:57;44.10;;;23.08;;
21539;SDS011;10931;52.164;5.518;2024-02-14T05:20:25;44.72;;;24.50;;
21539;SDS011;10931;52.164;5.518;2024-02-14T05:22:51;44.38;;;25.48;;
21539;SDS011;10931;52.164;5.518;2024-02-14T05:25:17;53.40;;;26.00;;
21539;SDS011;10931;52.164;5.518;2024-02-14T05:27:43;54.70;;;26.42;;
21539;SDS011;10931;52.164;5.518;2024-02-14T05:30:12;41.78;;;25.83;;
21539;SDS011;10931;52.164;5.518;2024-02-14T05:32:42;42.88;;;25.58;;
21539;SDS011;10931;52.164;5.518;2024-02-14T05:35:13;46.95;;;25.58;;
21539;SDS011;10931;52.164;5.518;2024-02-14T05:37:39;41.83;;;24.80;;
21539;SDS011;10931;52.164;5.518;2024-02-14T05:40:06;43.72;;;26.25;;
21539;SDS011;10931;52.164;5.518;2024-02-14T05:42:37;44.83;;;26.63;;
21539;SDS011;10931;52.164;5.518;2024-02-14T05:45:03;48.50;;;27.77;;
21539;SDS011;10931;52.164;5.518;2024-02-14T05:47:30;45.10;;;23.80;;
21539;SDS011;10931;52.164;5.518;2024-02-14T05:49:56;45.28;;;24.75;;
21539;SDS011;10931;52.164;5.518;2024-02-14T05:52:22;40.13;;;24.88;;
21539;SDS011;10931;52.164;5.518;2024-02-14T05:54:48;41.92;;;23.98;;
21539;SDS011;10931;52.164;5.518;2024-02-14T05:57:15;39.83;;;24.50;;
21539;SDS011;10931;52.164;5.518;2024-02-14T05:59:41;39.53;;;23.05;;
21539;SDS011;10931;52.164;5.518;2024-02-14T06:02:13;42.25;;;23.58;;
21539;SDS011;10931;52.164;5.518;2024-02-14T06:04:39;38.17;;;23.98;;
21539;SDS011;10931;52.164;5.518;2024-02-14T06:07:10;34.70;;;22.08;;
21539;SDS011;10931;52.164;5.518;2024-02-14T06:09:36;34.00;;;22.05;;
21539;SDS011;10931;52.164;5.518;2024-02-14T06:12:02;33.95;;;21.65;;
21539;SDS011;10931;52.164;5.518;2024-02-14T06:14:29;34.13;;;20.48;;
21539;SDS011;10931;52.164;5.518;2024-02-14T06:16:56;33.20;;;21.77;;
21539;SDS011;10931;52.164;5.518;2024-02-14T06:19:22;31.15;;;19.67;;
21539;SDS011;10931;52.164;5.518;2024-02-14T06:21:48;32.00;;;20.15;;
21539;SDS011;10931;52.164;5.518;2024-02-14T06:24:20;29.73;;;19.30;;
21539;SDS011;10931;52.164;5.518;2024-02-14T06:26:46;31.63;;;19.88;;
21539;SDS011;10931;52.164;5.518;2024-02-14T06:29:12;30.63;;;21.00;;
21539;SDS011;10931;52.164;5.518;2024-02-14T06:31:38;30.17;;;19.80;;
21539;SDS011;10931;52.164;5.518;2024-02-14T06:34:04;34.13;;;21.10;;
21539;SDS011;10931;52.164;5.518;2024-02-14T06:36:32;33.60;;;21.10;;
21539;SDS011;10931;52.164;5.518;2024-02-14T06:39:00;33.05;;;19.55;;
21539;SDS011;10931;52.164;5.518;2024-02-14T06:41:26;28.17;;;20.40;;
21539;SDS011;10931;52.164;5.518;2024-02-14T06:44:02;28.50;;;18.58;;
21539;SDS011;10931;52.164;5.518;2024-02-14T06:46:38;28.52;;;18.92;;
21539;SDS011;10931;52.164;5.518;2024-02-14T06:49:10;23.85;;;16.48;;
21539;SDS011;10931;52.164;5.518;2024-02-14T06:51:46;28.60;;;17.17;;
21539;SDS011;10931;52.164;5.518;2024-02-14T06:54:12;23.23;;;16.67;;
21539;SDS011;10931;52.164;5.518;2024-02-14T06:56:47;22.58;;;16.90;;
21539;SDS011;10931;52.164;5.518;2024-02-14T06:59:23;24.95;;;17.85;;
21539;SDS011;10931;52.164;5.518;2024-02-14T07:01:55;25.02;;;16.60;;
21539;SDS011;10931;52.164;5.518;2024-02-14T07:04:24;25.63;;;18.15;;
21539;SDS011;10931;52.164;5.518;2024-02-14T07:06:56;30.55;;;19.27;;
21539;SDS011;10931;52.164;5.518;2024-02-14T07:09:21;31.17;;;19.17;;
21539;SDS011;10931;52.164;5.518;2024-02-14T07:11:47;31.75;;;21.00;;
21539;SDS011;10931;52.164;5.518;2024-02-14T07:14:14;34.70;;;20.88;;
21539;SDS011;10931;52.164;5.518;2024-02-14T07:16:40;30.40;;;20.55;;
21539;SDS011;10931;52.164;5.518;2024-02-14T07:19:06;32.95;;;21.90;;
21539;SDS011;10931;52.164;5.518;2024-02-14T07:21:32;40.42;;;21.02;;
21539;SDS011;10931;52.164;5.518;2024-02-14T07:23:58;33.72;;;20.95;;
21539;SDS011;10931;52.164;5.518;2024-02-14T07:26:24;34.13;;;21.77;;
21539;SDS011;10931;52.164;5.518;2024-02-14T07:28:54;34.00;;;20.58;;
21539;SDS011;10931;52.164;5.518;2024-02-14T07:31:19;37.63;;;20.80;;
21539;SDS011;10931;52.164;5.518;2024-02-14T07:33:45;35.63;;;22.90;;
21539;SDS011;10931;52.164;5.518;2024-02-14T07:36:13;43.42;;;23.55;;
21539;SDS011;10931;52.164;5.518;2024-02-14T07:38:48;45.67;;;24.85;;
21539;SDS011;10931;52.164;5.518;2024-02-14T07:41:13;43.72;;;27.15;;
21539;SDS011;10931;52.164;5.518;2024-02-14T07:43:39;43.22;;;25.55;;
21539;SDS011;10931;52.164;5.518;2024-02-14T07:46:06;43.50;;;26.45;;
21539;SDS011;10931;52.164;5.518;2024-02-14T07:48:32;43.90;;;25.27;;
21539;SDS011;10931;52.164;5.518;2024-02-14T07:50:58;42.40;;;24.73;;
21539;SDS011;10931;52.164;5.518;2024-02-14T07:53:27;37.92;;;23.75;;
21539;SDS011;10931;52.164;5.518;2024-02-14T07:55:56;38.65;;;24.35;;
21539;SDS011;10931;52.164;5.518;2024-02-14T07:58:21;41.03;;;24.60;;
21539;SDS011;10931;52.164;5.518;2024-02-14T08:00:47;34.55;;;22.58;;
21539;SDS011;10931;52.164;5.518;2024-02-14T08:03:16;37.10;;;23.92;;
21539;SDS011;10931;52.164;5.518;2024-02-14T08:05:44;38.58;;;23.63;;
21539;SDS011;10931;52.164;5.518;2024-02-14T08:08:10;46.05;;;25.95;;
21539;SDS011;10931;52.164;5.518;2024-02-14T08:10:38;39.05;;;24.98;;
21539;SDS011;10931;52.164;5.518;2024-02-14T08:13:04;46.75;;;26.85;;
21539;SDS011;10931;52.164;5.518;2024-02-14T08:15:38;43.85;;;26.83;;
21539;SDS011;10931;52.164;5.518;2024-02-14T08:18:08;40.67;;;25.75;;
21539;SDS011;10931;52.164;5.518;2024-02-14T08:20:35;42.17;;;26.70;;
21539;SDS011;10931;52.164;5.518;2024-02-14T08:23:04;43.53;;;26.13;;
21539;SDS011;10931;52.164;5.518;2024-02-14T08:25:30;39.95;;;25.75;;
21539;SDS011;10931;52.164;5.518;2024-02-14T08:28:03;37.72;;;24.30;;
21539;SDS011;10931;52.164;5.518;2024-02-14T08:30:29;41.47;;;25.50;;
21539;SDS011;10931;52.164;5.518;2024-02-14T08:32:56;45.05;;;25.90;;
21539;SDS011;10931;52.164;5.518;2024-02-14T08:35:22;37.40;;;24.35;;
21539;SDS011;10931;52.164;5.518;2024-02-14T08:37:48;43.53;;;26.00;;
21539;SDS011;10931;52.164;5.518;2024-02-14T08:40:14;39.78;;;24.63;;
21539;SDS011;10931;52.164;5.518;2024-02-14T08:42:43;43.80;;;25.10;;
21539;SDS011;10931;52.164;5.518;2024-02-14T08:45:16;41.90;;;26.15;;
21539;SDS011;10931;52.164;5.518;2024-02-14T08:47:46;42.58;;;26.23;;
21539;SDS011;10931;52.164;5.518;2024-02-14T08:50:14;44.05;;;26.85;;
21539;SDS011;10931;52.164;5.518;2024-02-14T08:52:40;46.10;;;28.38;;
21539;SDS011;10931;52.164;5.518;2024-02-14T08:55:06;43.55;;;27.65;;
21539;SDS011;10931;52.164;5.518;2024-02-14T08:57:39;46.95;;;29.67;;
21539;SDS011;10931;52.164;5.518;2024-02-14T09:00:06;43.50;;;27.45;;
21539;SDS011;10931;52.164;5.518;2024-02-14T09:02:32;45.30;;;27.52;;
21539;SDS011;10931;52.164;5.518;2024-02-14T09:05:01;52.95;;;28.95;;
21539;SDS011;10931;52.164;5.518;2024-02-14T09:07:29;44.38;;;28.15;;
21539;SDS011;10931;52.164;5.518;2024-02-14T09:09:56;42.72;;;27.05;;
21539;SDS011;10931;52.164;5.518;2024-02-14T09:12:23;44.35;;;26.70;;
21539;SDS011;10931;52.164;5.518;2024-02-14T09:14:49;38.70;;;25.05;;
21539;SDS011;10931;52.164;5.518;2024-02-14T09:17:16;40.85;;;26.67;;
21539;SDS011;10931;52.164;5.518;2024-02-14T09:19:42;42.70;;;25.80;;
21539;SDS011;10931;52.164;5.518;2024-02-14T09:22:08;38.65;;;23.45;;
21539;SDS011;10931;52.164;5.518;2024-02-14T09:24:37;37.47;;;22.98;;
21539;SDS011;10931;52.164;5.518;2024-02-14T09:27:04;33.75;;;22.52;;
21539;SDS011;10931;52.164;5.518;2024-02-14T09:29:33;37.03;;;23.50;;
21539;SDS011;10931;52.164;5.518;2024-02-14T09:32:03;39.42;;;23.65;;
21539;SDS011;10931;52.164;5.518;2024-02-14T09:34:29;36.45;;;20.70;;
21539;SDS011;10931;52.164;5.518;2024-02-14T09:36:56;29.00;;;21.10;;
21539;SDS011;10931;52.164;5.518;2024-02-14T09:39:23;30.30;;;20.45;;
21539;SDS011;10931;52.164;5.518;2024-02-14T09:41:54;33.78;;;22.88;;
21539;SDS011;10931;52.164;5.518;2024-02-14T09:44:24;39.95;;;21.77;;
21539;SDS011;10931;52.164;5.518;2024-02-14T09:46:53;35.88;;;23.27;;
21539;SDS011;10931;52.164;5.518;2024-02-14T09:49:20;35.72;;;22.63;;
21539;SDS011;10931;52.164;5.518;2024-02-14T09:51:52;32.50;;;22.05;;
21539;SDS011;10931;52.164;5.518;2024-02-14T09:54:21;30.88;;;21.77;;
21539;SDS011;10931;52.164;5.518;2024-02-14T09:56:51;32.38;;;22.75;;
21539;SDS011;10931;52.164;5.518;2024-02-14T09:59:22;31.83;;;22.02;;
21539;SDS011;10931;52.164;5.518;2024-02-14T10:01:48;30.65;;;21.88;;
21539;SDS011;10931;52.164;5.518;2024-02-14T10:04:19;36.03;;;23.40;;
21539;SDS011;10931;52.164;5.518;2024-02-14T10:06:51;33.58;;;22.83;;
21539;SDS011;10931;52.164;5.518;2024-02-14T10:09:40;34.60;;;22.58;;
21539;SDS011;10931;52.164;5.518;2024-02-14T10:12:10;31.88;;;23.05;;
21539;SDS011;10931;52.164;5.518;2024-02-14T10:14:36;42.20;;;25.60;;
21539;SDS011;10931;52.164;5.518;2024-02-14T10:17:05;42.38;;;25.42;;
21539;SDS011;10931;52.164;5.518;2024-02-14T10:19:36;40.58;;;27.17;;
21539;SDS011;10931;52.164;5.518;2024-02-14T10:22:05;43.17;;;27.33;;
21539;SDS011;10931;52.164;5.518;2024-02-14T10:24:33;51.72;;;28.38;;
21539;SDS011;10931;52.164;5.518;2024-02-14T10:26:59;49.10;;;30.70;;
21539;SDS011;10931;52.164;5.518;2024-02-14T10:29:25;43.88;;;28.77;;
21539;SDS011;10931;52.164;5.518;2024-02-14T10:31:54;46.72;;;27.88;;
21539;SDS011;10931;52.164;5.518;2024-02-14T10:34:26;49.33;;;27.98;;
21539;SDS011;10931;52.164;5.518;2024-02-14T10:39:43;40.42;;;25.52;;
21539;SDS011;10931;52.164;5.518;2024-02-14T10:42:13;46.42;;;27.88;;
21539;SDS011;10931;52.164;5.518;2024-02-14T10:44:39;38.05;;;25.90;;
21539;SDS011;10931;52.164;5.518;2024-02-14T10:47:06;43.22;;;26.20;;
21539;SDS011;10931;52.164;5.518;2024-02-14T10:49:50;43.72;;;25.52;;
21539;SDS011;10931;52.164;5.518;2024-02-14T10:52:57;41.33;;;25.77;;
21539;SDS011;10931;52.164;5.518;2024-02-14T10:56:11;38.80;;;25.25;;
21539;SDS011;10931;52.164;5.518;2024-02-14T10:59:03;39.75;;;26.20;;
21539;SDS011;10931;52.164;5.518;2024-02-14T11:01:41;41.70;;;25.75;;
21539;SDS011;10931;52.164;5.518;2024-02-14T11:04:12;38.28;;;25.45;;
21539;SDS011;10931;52.164;5.518;2024-02-14T11:06:51;35.13;;;23.50;;
21539;SDS011;10931;52.164;5.518;2024-02-14T11:09:31;34.10;;;23.98;;
21539;SDS011;10931;52.164;5.518;2024-02-14T11:12:17;35.80;;;24.05;;
21539;SDS011;10931;52.164;5.518;2024-02-14T11:14:56;36.88;;;23.95;;
21539;SDS011;10931;52.164;5.518;2024-02-14T11:17:31;41.08;;;25.20;;
21539;SDS011;10931;52.164;5.518;2024-02-14T11:19:59;34.17;;;24.58;;
21539;SDS011;10931;52.164;5.518;2024-02-14T11:23:12;34.72;;;23.25;;
21539;SDS011;10931;52.164;5.518;2024-02-14T11:26:15;38.25;;;24.30;;
21539;SDS011;10931;52.164;5.518;2024-02-14T11:29:01;41.35;;;24.55;;
21539;SDS011;10931;52.164;5.518;2024-02-14T11:31:47;32.13;;;22.52;;
21539;SDS011;10931;52.164;5.518;2024-02-14T11:34:37;32.78;;;21.10;;
21539;SDS011;10931;52.164;5.518;2024-02-14T11:40:38;28.05;;;21.67;;
21539;SDS011;10931;52.164;5.518;2024-02-14T11:43:13;30.67;;;21.55;;
21539;SDS011;10931;52.164;5.518;2024-02-14T11:46:03;29.35;;;21.05;;
21539;SDS011;10931;52.164;5.518;2024-02-14T11:49:03;31.15;;;21.33;;
21539;SDS011;10931;52.164;5.518;2024-02-14T11:51:35;30.00;;;21.05;;
21539;SDS011;10931;52.164;5.518;2024-02-14T11:54:13;35.17;;;20.95;;
21539;SDS011;10931;52.164;5.518;2024-02-14T11:56:43;26.67;;;20.08;;
21539;SDS011;10931;52.164;5.518;2024-02-14T12:02:04;33.90;;;21.92;;
21539;SDS011;10931;52.164;5.518;2024-02-14T12:04:30;31.02;;;21.75;;
21539;SDS011;10931;52.164;5.518;2024-02-14T12:07:04;33.83;;;21.85;;
21539;SDS011;10931;52.164;5.518;2024-02-14T12:09:38;32.58;;;22.63;;
21539;SDS011;10931;52.164;5.518;2024-02-14T12:12:16;32.45;;;20.98;;
21539;SDS011;10931;52.164;5.518;2024-02-14T12:14:51;30.20;;;20.58;;
21539;SDS011;10931;52.164;5.518;2024-02-14T12:17:26;32.95;;;20.92;;
21539;SDS011;10931;52.164;5.518;2024-02-14T12:19:52;28.00;;;19.40;;
21539;SDS011;10931;52.164;5.518;2024-02-14T12:22:18;31.23;;;19.08;;
21539;SDS011;10931;52.164;5.518;2024-02-14T12:24:46;31.00;;;19.15;;
21539;SDS011;10931;52.164;5.518;2024-02-14T12:27:17;25.50;;;18.30;;
21539;SDS011;10931;52.164;5.518;2024-02-14T12:29:51;22.65;;;16.52;;
21539;SDS011;10931;52.164;5.518;2024-02-14T12:32:19;23.58;;;16.45;;
21539;SDS011;10931;52.164;5.518;2024-02-14T12:34:58;24.77;;;17.02;;
21539;SDS011;10931;52.164;5.518;2024-02-14T12:37:36;24.45;;;17.00;;
21539;SDS011;10931;52.164;5.518;2024-02-14T12:40:02;27.20;;;17.00;;
21539;SDS011;10931;52.164;5.518;2024-02-14T12:42:30;21.55;;;16.10;;
21539;SDS011;10931;52.164;5.518;2024-02-14T12:45:06;25.10;;;15.77;;
21539;SDS011;10931;52.164;5.518;2024-02-14T12:47:45;24.20;;;15.25;;
21539;SDS011;10931;52.164;5.518;2024-02-14T12:50:37;20.17;;;14.23;;
21539;SDS011;10931;52.164;5.518;2024-02-14T12:56:43;17.80;;;13.20;;
21539;SDS011;10931;52.164;5.518;2024-02-14T12:59:18;20.02;;;13.52;;
21539;SDS011;10931;52.164;5.518;2024-02-14T13:02:26;24.30;;;12.85;;
21539;SDS011;10931;52.164;5.518;2024-02-14T13:11:09;20.67;;;12.10;;
21539;SDS011;10931;52.164;5.518;2024-02-14T13:23:33;11.82;;;9.45;;
21539;SDS011;10931;52.164;5.518;2024-02-14T13:26:05;10.50;;;8.68;;
21539;SDS011;10931;52.164;5.518;2024-02-14T13:53:33;14.85;;;10.45;;
21539;SDS011;10931;52.164;5.518;2024-02-14T13:56:40;15.10;;;10.70;;
21539;SDS011;10931;52.164;5.518;2024-02-14T15:17:25;18.27;;;14.27;;
21539;SDS011;10931;52.164;5.518;2024-02-14T15:31:00;20.60;;;15.10;;
